Terminal Aerodrome Forecast
Issued by NWS Wilmington, NC

Home | Current Version | Previous Version | Text Only | Print | Product List | Glossary On
Versions: 1 2 3 4 5 6 7 8 9 10 11 12 13 14 15 16 17 18
000
FTUS42 KILM 252300
TAFFLO
TAF
KFLO 252331Z 2600/2624 17005KT P6SM FEW120 SCT250
     FM260800 21006KT P6SM BKN035 BKN090
     FM261400 26012G19KT P6SM VCSH FEW007 SCT015 BKN050
     FM261700 29012G20KT P6SM VCSH SCT030 OVC050=

USA.gov is the U.S. government's official web portal to all federal, state and local government web resources and services.